sensor_id;sensor_type;location;lat;lon;timestamp;pressure;altitude;pressure_sealevel;temperature;humidity
19096;BME280;9680;52.520;13.332;2024-03-06T00:02:21;101759.38;;;3.01;79.15
19096;BME280;9680;52.520;13.332;2024-03-06T00:04:47;101755.06;;;2.99;79.46
19096;BME280;9680;52.520;13.332;2024-03-06T00:07:14;101760.22;;;2.99;79.59
19096;BME280;9680;52.520;13.332;2024-03-06T00:09:41;101764.47;;;2.95;79.69
19096;BME280;9680;52.520;13.332;2024-03-06T00:12:08;101771.31;;;2.93;79.65
19096;BME280;9680;52.520;13.332;2024-03-06T00:14:35;101767.88;;;2.94;79.95
19096;BME280;9680;52.520;13.332;2024-03-06T00:17:04;101773.88;;;2.95;79.99
19096;BME280;9680;52.520;13.332;2024-03-06T00:19:32;101774.72;;;2.92;79.86
19096;BME280;9680;52.520;13.332;2024-03-06T00:21:59;101782.41;;;2.89;79.82
19096;BME280;9680;52.520;13.332;2024-03-06T00:24:26;101789.22;;;2.85;80.03
19096;BME280;9680;52.520;13.332;2024-03-06T00:26:53;101790.97;;;2.85;80.23
19096;BME280;9680;52.520;13.332;2024-03-06T00:29:20;101792.66;;;2.84;80.26
19096;BME280;9680;52.520;13.332;2024-03-06T00:31:47;101795.19;;;2.81;80.20
19096;BME280;9680;52.520;13.332;2024-03-06T00:34:15;101795.19;;;2.80;80.45
19096;BME280;9680;52.520;13.332;2024-03-06T00:36:43;101801.19;;;2.79;80.61
19096;BME280;9680;52.520;13.332;2024-03-06T00:39:10;101805.50;;;2.80;80.75
19096;BME280;9680;52.520;13.332;2024-03-06T00:41:39;101807.19;;;2.79;80.91
19096;BME280;9680;52.520;13.332;2024-03-06T00:44:06;101814.94;;;2.81;81.17
19096;BME280;9680;52.520;13.332;2024-03-06T00:46:33;101814.94;;;2.82;81.23
19096;BME280;9680;52.520;13.332;2024-03-06T00:49:00;101818.38;;;2.84;81.07
19096;BME280;9680;52.520;13.332;2024-03-06T00:51:28;101817.53;;;2.85;81.36
19096;BME280;9680;52.520;13.332;2024-03-06T00:53:56;101824.41;;;2.86;81.45
19096;BME280;9680;52.520;13.332;2024-03-06T00:56:23;101822.72;;;2.87;81.42
19096;BME280;9680;52.520;13.332;2024-03-06T00:58:49;101824.41;;;2.85;81.21
19096;BME280;9680;52.520;13.332;2024-03-06T01:01:17;101830.38;;;2.82;81.48
19096;BME280;9680;52.520;13.332;2024-03-06T01:03:44;101826.94;;;2.80;81.58
19096;BME280;9680;52.520;13.332;2024-03-06T01:06:11;101832.94;;;2.81;81.85
19096;BME280;9680;52.520;13.332;2024-03-06T01:08:39;101829.53;;;2.83;81.97
19096;BME280;9680;52.520;13.332;2024-03-06T01:11:06;101829.50;;;2.80;81.80
19096;BME280;9680;52.520;13.332;2024-03-06T01:13:33;101826.88;;;2.75;81.62
19096;BME280;9680;52.520;13.332;2024-03-06T01:16:00;101828.59;;;2.73;82.01
19096;BME280;9680;52.520;13.332;2024-03-06T01:18:26;101827.69;;;2.73;82.31
19096;BME280;9680;52.520;13.332;2024-03-06T01:20:53;101837.16;;;2.74;82.40
19096;BME280;9680;52.520;13.332;2024-03-06T01:23:20;101828.59;;;2.75;82.46
19096;BME280;9680;52.520;13.332;2024-03-06T01:25:48;101836.34;;;2.76;82.67
19096;BME280;9680;52.520;13.332;2024-03-06T01:28:15;101831.16;;;2.75;82.90
19096;BME280;9680;52.520;13.332;2024-03-06T01:30:43;101844.91;;;2.77;82.80
19096;BME280;9680;52.520;13.332;2024-03-06T01:33:09;101844.03;;;2.75;82.96
19096;BME280;9680;52.520;13.332;2024-03-06T01:35:36;101846.59;;;2.75;83.12
19096;BME280;9680;52.520;13.332;2024-03-06T01:38:03;101849.16;;;2.75;83.11
19096;BME280;9680;52.520;13.332;2024-03-06T01:40:31;101844.91;;;2.75;83.16
19096;BME280;9680;52.520;13.332;2024-03-06T01:42:59;101844.94;;;2.79;83.23
19096;BME280;9680;52.520;13.332;2024-03-06T01:45:26;101846.63;;;2.78;83.20
19096;BME280;9680;52.520;13.332;2024-03-06T01:47:53;101856.09;;;2.79;83.17
19096;BME280;9680;52.520;13.332;2024-03-06T01:50:20;101856.09;;;2.79;83.26
19096;BME280;9680;52.520;13.332;2024-03-06T01:52:47;101859.53;;;2.80;83.24
19096;BME280;9680;52.520;13.332;2024-03-06T01:55:14;101853.50;;;2.79;83.41
19096;BME280;9680;52.520;13.332;2024-03-06T01:57:41;101858.66;;;2.79;83.50
19096;BME280;9680;52.520;13.332;2024-03-06T02:00:11;101856.09;;;2.78;83.59
19096;BME280;9680;52.520;13.332;2024-03-06T02:02:41;101854.31;;;2.75;83.44
19096;BME280;9680;52.520;13.332;2024-03-06T02:05:08;101857.78;;;2.75;83.68
19096;BME280;9680;52.520;13.332;2024-03-06T02:07:36;101856.91;;;2.76;83.67
19096;BME280;9680;52.520;13.332;2024-03-06T02:10:06;101852.63;;;2.75;83.79
19096;BME280;9680;52.520;13.332;2024-03-06T02:12:35;101853.47;;;2.76;83.87
19096;BME280;9680;52.520;13.332;2024-03-06T02:15:02;101850.91;;;2.74;84.14
19096;BME280;9680;52.520;13.332;2024-03-06T02:17:31;101859.47;;;2.75;84.12
19096;BME280;9680;52.520;13.332;2024-03-06T02:19:57;101854.31;;;2.73;84.22
19096;BME280;9680;52.520;13.332;2024-03-06T02:22:26;101854.28;;;2.72;84.16
19096;BME280;9680;52.520;13.332;2024-03-06T02:24:53;101856.81;;;2.67;83.95
19096;BME280;9680;52.520;13.332;2024-03-06T02:27:19;101861.00;;;2.62;84.07
19096;BME280;9680;52.520;13.332;2024-03-06T02:29:46;101856.69;;;2.59;84.26
19096;BME280;9680;52.520;13.332;2024-03-06T02:32:13;101863.50;;;2.56;84.08
19096;BME280;9680;52.520;13.332;2024-03-06T02:34:40;101858.31;;;2.53;84.34
19096;BME280;9680;52.520;13.332;2024-03-06T02:37:10;101866.84;;;2.48;84.40
19096;BME280;9680;52.520;13.332;2024-03-06T02:39:38;101871.09;;;2.46;84.46
19096;BME280;9680;52.520;13.332;2024-03-06T02:42:05;101871.09;;;2.46;84.82
19096;BME280;9680;52.520;13.332;2024-03-06T02:44:32;101871.94;;;2.44;84.89
19096;BME280;9680;52.520;13.332;2024-03-06T02:46:59;101867.63;;;2.44;85.10
19096;BME280;9680;52.520;13.332;2024-03-06T02:49:26;101876.19;;;2.42;85.00
19096;BME280;9680;52.520;13.332;2024-03-06T02:51:53;101871.00;;;2.40;84.96
19096;BME280;9680;52.520;13.332;2024-03-06T02:54:20;101873.53;;;2.37;85.15
19096;BME280;9680;52.520;13.332;2024-03-06T02:56:48;101870.94;;;2.34;85.03
19096;BME280;9680;52.520;13.332;2024-03-06T02:59:17;101870.09;;;2.35;85.44
19096;BME280;9680;52.520;13.332;2024-03-06T03:01:43;101867.56;;;2.37;85.88
19096;BME280;9680;52.520;13.332;2024-03-06T03:04:10;101865.88;;;2.39;85.74
19096;BME280;9680;52.520;13.332;2024-03-06T03:06:37;101868.47;;;2.42;86.00
19096;BME280;9680;52.520;13.332;2024-03-06T03:09:04;101871.06;;;2.42;86.13
19096;BME280;9680;52.520;13.332;2024-03-06T03:11:30;101879.66;;;2.44;85.88
19096;BME280;9680;52.520;13.332;2024-03-06T03:13:59;101879.63;;;2.42;85.91
19096;BME280;9680;52.520;13.332;2024-03-06T03:16:25;101885.59;;;2.40;85.71
19096;BME280;9680;52.520;13.332;2024-03-06T03:18:52;101894.13;;;2.36;85.75
19096;BME280;9680;52.520;13.332;2024-03-06T03:21:19;101898.38;;;2.35;86.13
19096;BME280;9680;52.520;13.332;2024-03-06T03:23:46;101890.66;;;2.33;86.02
19096;BME280;9680;52.520;13.332;2024-03-06T03:26:14;101902.59;;;2.31;85.93
19096;BME280;9680;52.520;13.332;2024-03-06T03:28:41;101899.97;;;2.28;86.10
19096;BME280;9680;52.520;13.332;2024-03-06T03:31:09;101904.22;;;2.26;86.28
19096;BME280;9680;52.520;13.332;2024-03-06T03:33:39;101911.94;;;2.26;86.46
19096;BME280;9680;52.520;13.332;2024-03-06T03:36:06;101910.22;;;2.25;86.53
19096;BME280;9680;52.520;13.332;2024-03-06T03:38:33;101912.78;;;2.24;86.41
19096;BME280;9680;52.520;13.332;2024-03-06T03:41:01;101915.34;;;2.25;86.77
19096;BME280;9680;52.520;13.332;2024-03-06T03:43:29;101915.41;;;2.27;87.01
19096;BME280;9680;52.520;13.332;2024-03-06T03:45:56;101911.16;;;2.30;87.05
19096;BME280;9680;52.520;13.332;2024-03-06T03:48:24;101912.88;;;2.31;87.03
19096;BME280;9680;52.520;13.332;2024-03-06T03:50:51;101914.59;;;2.31;86.82
19096;BME280;9680;52.520;13.332;2024-03-06T03:53:18;101920.53;;;2.27;86.81
19096;BME280;9680;52.520;13.332;2024-03-06T03:55:44;101916.19;;;2.24;86.73
19096;BME280;9680;52.520;13.332;2024-03-06T03:58:11;101924.75;;;2.22;86.77
19096;BME280;9680;52.520;13.332;2024-03-06T04:00:38;101918.69;;;2.18;86.77
19096;BME280;9680;52.520;13.332;2024-03-06T04:03:05;101914.34;;;2.14;86.84
19096;BME280;9680;52.520;13.332;2024-03-06T04:05:33;101915.19;;;2.13;87.29
19096;BME280;9680;52.520;13.332;2024-03-06T04:08:01;101928.03;;;2.13;87.26
19096;BME280;9680;52.520;13.332;2024-03-06T04:10:27;101924.59;;;2.12;87.17
19096;BME280;9680;52.520;13.332;2024-03-06T04:12:54;101928.84;;;2.10;87.42
19096;BME280;9680;52.520;13.332;2024-03-06T04:15:21;101928.88;;;2.12;87.58
19096;BME280;9680;52.520;13.332;2024-03-06T04:17:48;101929.75;;;2.14;87.78
19096;BME280;9680;52.520;13.332;2024-03-06T04:20:15;101924.56;;;2.11;88.04
19096;BME280;9680;52.520;13.332;2024-03-06T04:22:44;101934.06;;;2.13;88.20
19096;BME280;9680;52.520;13.332;2024-03-06T04:25:11;101929.75;;;2.14;88.46
19096;BME280;9680;52.520;13.332;2024-03-06T04:27:38;101931.44;;;2.12;88.59
19096;BME280;9680;52.520;13.332;2024-03-06T04:30:06;101934.00;;;2.12;88.48
19096;BME280;9680;52.520;13.332;2024-03-06T04:32:33;101934.84;;;2.11;88.40
19096;BME280;9680;52.520;13.332;2024-03-06T04:35:00;101929.72;;;2.11;88.44
19096;BME280;9680;52.520;13.332;2024-03-06T04:37:27;101934.84;;;2.11;88.63
19096;BME280;9680;52.520;13.332;2024-03-06T04:39:56;101938.31;;;2.11;88.74
19096;BME280;9680;52.520;13.332;2024-03-06T04:42:23;101934.88;;;2.12;88.70
19096;BME280;9680;52.520;13.332;2024-03-06T04:44:50;101931.44;;;2.12;88.67
19096;BME280;9680;52.520;13.332;2024-03-06T04:47:16;101939.19;;;2.13;88.76
19096;BME280;9680;52.520;13.332;2024-03-06T04:49:44;101946.91;;;2.15;88.74
19096;BME280;9680;52.520;13.332;2024-03-06T04:52:12;101942.66;;;2.17;88.79
19096;BME280;9680;52.520;13.332;2024-03-06T04:54:38;101950.31;;;2.14;89.05
19096;BME280;9680;52.520;13.332;2024-03-06T04:57:06;101949.47;;;2.13;89.02
19096;BME280;9680;52.520;13.332;2024-03-06T04:59:36;101947.75;;;2.12;89.26
19096;BME280;9680;52.520;13.332;2024-03-06T05:02:02;101953.75;;;2.13;89.49
19096;BME280;9680;52.520;13.332;2024-03-06T05:04:29;101958.00;;;2.11;89.52
19096;BME280;9680;52.520;13.332;2024-03-06T05:06:56;101961.44;;;2.11;89.57
19096;BME280;9680;52.520;13.332;2024-03-06T05:09:23;101958.00;;;2.11;89.71
19096;BME280;9680;52.520;13.332;2024-03-06T05:11:49;101964.84;;;2.10;89.58
19096;BME280;9680;52.520;13.332;2024-03-06T05:14:18;101963.97;;;2.10;89.86
19096;BME280;9680;52.520;13.332;2024-03-06T05:16:45;101971.69;;;2.08;90.03
19096;BME280;9680;52.520;13.332;2024-03-06T05:19:12;101972.53;;;2.09;89.95
19096;BME280;9680;52.520;13.332;2024-03-06T05:21:39;101973.41;;;2.09;89.86
19096;BME280;9680;52.520;13.332;2024-03-06T05:24:06;101977.72;;;2.12;89.85
19096;BME280;9680;52.520;13.332;2024-03-06T05:26:33;101976.81;;;2.08;89.92
19096;BME280;9680;52.520;13.332;2024-03-06T05:29:00;101986.22;;;2.08;90.11
19096;BME280;9680;52.520;13.332;2024-03-06T05:31:28;101987.06;;;2.07;90.26
19096;BME280;9680;52.520;13.332;2024-03-06T05:33:55;101987.91;;;2.06;90.22
19096;BME280;9680;52.520;13.332;2024-03-06T05:36:22;101992.25;;;2.08;90.45
19096;BME280;9680;52.520;13.332;2024-03-06T05:38:48;101988.00;;;2.12;90.34
19096;BME280;9680;52.520;13.332;2024-03-06T05:41:15;101998.31;;;2.13;90.12
19096;BME280;9680;52.520;13.332;2024-03-06T05:43:46;101995.72;;;2.12;90.34
19096;BME280;9680;52.520;13.332;2024-03-06T05:46:13;102003.47;;;2.13;90.20
19096;BME280;9680;52.520;13.332;2024-03-06T05:48:42;102006.94;;;2.15;90.03
19096;BME280;9680;52.520;13.332;2024-03-06T05:51:09;102011.19;;;2.15;90.10
19096;BME280;9680;52.520;13.332;2024-03-06T05:53:36;102012.09;;;2.17;90.07
19096;BME280;9680;52.520;13.332;2024-03-06T05:56:05;102020.72;;;2.21;90.01
19096;BME280;9680;52.520;13.332;2024-03-06T05:58:32;102018.16;;;2.21;90.14
19096;BME280;9680;52.520;13.332;2024-03-06T06:01:00;102022.47;;;2.23;90.11
19096;BME280;9680;52.520;13.332;2024-03-06T06:03:26;102028.50;;;2.24;90.10
19096;BME280;9680;52.520;13.332;2024-03-06T06:05:55;102027.66;;;2.25;90.02
19096;BME280;9680;52.520;13.332;2024-03-06T06:08:22;102033.69;;;2.28;90.16
19096;BME280;9680;52.520;13.332;2024-03-06T06:10:49;102032.88;;;2.29;90.12
19096;BME280;9680;52.520;13.332;2024-03-06T06:13:18;102038.03;;;2.31;90.01
19096;BME280;9680;52.520;13.332;2024-03-06T06:15:45;102032.94;;;2.32;90.07
19096;BME280;9680;52.520;13.332;2024-03-06T06:18:11;102042.41;;;2.35;89.98
19096;BME280;9680;52.520;13.332;2024-03-06T06:20:40;102042.44;;;2.38;90.04
19096;BME280;9680;52.520;13.332;2024-03-06T06:23:09;102044.22;;;2.42;90.01
19096;BME280;9680;52.520;13.332;2024-03-06T06:25:35;102046.84;;;2.44;89.83
19096;BME280;9680;52.520;13.332;2024-03-06T06:28:02;102049.47;;;2.48;89.82
19096;BME280;9680;52.520;13.332;2024-03-06T06:30:30;102051.19;;;2.48;89.95
19096;BME280;9680;52.520;13.332;2024-03-06T06:32:57;102049.53;;;2.50;90.00
19096;BME280;9680;52.520;13.332;2024-03-06T06:35:24;102053.84;;;2.53;89.95
19096;BME280;9680;52.520;13.332;2024-03-06T06:37:52;102063.31;;;2.55;90.01
19096;BME280;9680;52.520;13.332;2024-03-06T06:40:21;102051.34;;;2.57;89.78
19096;BME280;9680;52.520;13.332;2024-03-06T06:42:48;102058.22;;;2.60;89.81
19096;BME280;9680;52.520;13.332;2024-03-06T06:45:16;102057.44;;;2.62;89.84
19096;BME280;9680;52.520;13.332;2024-03-06T06:47:43;102054.88;;;2.64;89.79
19096;BME280;9680;52.520;13.332;2024-03-06T06:50:11;102048.88;;;2.64;89.78
19096;BME280;9680;52.520;13.332;2024-03-06T06:52:38;102060.09;;;2.69;89.61
19096;BME280;9680;52.520;13.332;2024-03-06T06:55:05;102065.34;;;2.75;89.45
19096;BME280;9680;52.520;13.332;2024-03-06T06:57:33;102068.00;;;2.80;89.36
19096;BME280;9680;52.520;13.332;2024-03-06T07:00:00;102076.66;;;2.85;89.11
19096;BME280;9680;52.520;13.332;2024-03-06T07:02:28;102075.81;;;2.87;88.78
19096;BME280;9680;52.520;13.332;2024-03-06T07:04:55;102080.16;;;2.90;88.71
19096;BME280;9680;52.520;13.332;2024-03-06T07:07:22;102084.53;;;2.94;88.62
19096;BME280;9680;52.520;13.332;2024-03-06T07:09:49;102089.75;;;2.99;88.20
19096;BME280;9680;52.520;13.332;2024-03-06T07:12:16;102082.06;;;3.02;87.75
19096;BME280;9680;52.520;13.332;2024-03-06T07:14:44;102079.56;;;3.05;87.78
19096;BME280;9680;52.520;13.332;2024-03-06T07:17:12;102084.75;;;3.10;87.65
19096;BME280;9680;52.520;13.332;2024-03-06T07:19:38;102083.97;;;3.15;87.52
19096;BME280;9680;52.520;13.332;2024-03-06T07:22:06;102081.50;;;3.23;87.23
19096;BME280;9680;52.520;13.332;2024-03-06T07:24:33;102084.19;;;3.31;87.36
19096;BME280;9680;52.520;13.332;2024-03-06T07:27:01;102092.88;;;3.38;87.00
19096;BME280;9680;52.520;13.332;2024-03-06T07:29:28;102091.25;;;3.44;86.77
19096;BME280;9680;52.520;13.332;2024-03-06T07:31:56;102098.25;;;3.55;86.56
19096;BME280;9680;52.520;13.332;2024-03-06T07:34:23;102097.47;;;3.62;86.01
19096;BME280;9680;52.520;13.332;2024-03-06T07:36:50;102105.31;;;3.68;85.98
19096;BME280;9680;52.520;13.332;2024-03-06T07:39:16;102101.00;;;3.69;85.38
19096;BME280;9680;52.520;13.332;2024-03-06T07:41:43;102108.00;;;3.77;85.20
19096;BME280;9680;52.520;13.332;2024-03-06T07:44:10;102108.91;;;3.84;84.65
19096;BME280;9680;52.520;13.332;2024-03-06T07:46:37;102114.16;;;3.90;84.49
19096;BME280;9680;52.520;13.332;2024-03-06T07:49:05;102110.78;;;3.96;83.99
19096;BME280;9680;52.520;13.332;2024-03-06T07:51:32;102116.00;;;4.01;83.74
19096;BME280;9680;52.520;13.332;2024-03-06T07:53:59;102114.38;;;4.11;83.42
19096;BME280;9680;52.520;13.332;2024-03-06T07:56:27;102123.91;;;4.16;83.34
19096;BME280;9680;52.520;13.332;2024-03-06T07:58:54;102122.28;;;4.26;82.98
19096;BME280;9680;52.520;13.332;2024-03-06T08:01:21;102126.69;;;4.35;82.70
19096;BME280;9680;52.520;13.332;2024-03-06T08:03:48;102125.88;;;4.39;81.89
19096;BME280;9680;52.520;13.332;2024-03-06T08:06:18;102118.22;;;4.47;81.42
19096;BME280;9680;52.520;13.332;2024-03-06T08:08:45;102121.66;;;4.50;80.61
19096;BME280;9680;52.520;13.332;2024-03-06T08:11:12;102128.63;;;4.56;80.21
19096;BME280;9680;52.520;13.332;2024-03-06T08:13:39;102128.63;;;4.59;80.08
19096;BME280;9680;52.520;13.332;2024-03-06T08:16:07;102132.19;;;4.69;79.96
19096;BME280;9680;52.520;13.332;2024-03-06T08:18:36;102135.69;;;4.79;79.62
19096;BME280;9680;52.520;13.332;2024-03-06T08:21:03;102133.16;;;4.85;78.83
19096;BME280;9680;52.520;13.332;2024-03-06T08:23:32;102131.50;;;4.93;78.95
19096;BME280;9680;52.520;13.332;2024-03-06T08:25:59;102136.75;;;5.04;78.59
19096;BME280;9680;52.520;13.332;2024-03-06T08:28:26;102137.69;;;5.16;77.66
19096;BME280;9680;52.520;13.332;2024-03-06T08:30:52;102141.19;;;5.24;77.83
19096;BME280;9680;52.520;13.332;2024-03-06T08:33:19;102139.56;;;5.32;76.65
19096;BME280;9680;52.520;13.332;2024-03-06T08:35:48;102151.63;;;5.35;76.01
19096;BME280;9680;52.520;13.332;2024-03-06T08:38:15;102153.41;;;5.47;76.36
19096;BME280;9680;52.520;13.332;2024-03-06T08:40:44;102156.91;;;5.52;75.50
19096;BME280;9680;52.520;13.332;2024-03-06T08:43:11;102162.09;;;5.58;74.85
19096;BME280;9680;52.520;13.332;2024-03-06T08:45:40;102166.47;;;5.67;74.46
19096;BME280;9680;52.520;13.332;2024-03-06T08:48:07;102161.28;;;5.68;73.88
19096;BME280;9680;52.520;13.332;2024-03-06T08:50:35;102160.47;;;5.76;73.57
19096;BME280;9680;52.520;13.332;2024-03-06T08:53:02;102155.31;;;5.77;73.15
19096;BME280;9680;52.520;13.332;2024-03-06T08:55:29;102163.97;;;5.90;73.69
19096;BME280;9680;52.520;13.332;2024-03-06T08:57:57;102167.53;;;6.05;73.13
19096;BME280;9680;52.520;13.332;2024-03-06T09:00:26;102171.00;;;6.16;72.73
19096;BME280;9680;52.520;13.332;2024-03-06T09:02:53;102167.63;;;6.31;72.46
19096;BME280;9680;52.520;13.332;2024-03-06T09:05:20;102171.09;;;6.43;71.28
19096;BME280;9680;52.520;13.332;2024-03-06T09:07:47;102170.22;;;6.45;70.82
19096;BME280;9680;52.520;13.332;2024-03-06T09:10:14;102172.00;;;6.60;70.60
19096;BME280;9680;52.520;13.332;2024-03-06T09:12:41;102168.56;;;6.78;70.11
19096;BME280;9680;52.520;13.332;2024-03-06T09:15:09;102173.75;;;7.00;70.04
19096;BME280;9680;52.520;13.332;2024-03-06T09:17:37;102176.31;;;7.28;69.12
19096;BME280;9680;52.520;13.332;2024-03-06T09:20:04;102170.22;;;7.49;67.67
19096;BME280;9680;52.520;13.332;2024-03-06T09:22:36;102174.59;;;7.36;65.60
19096;BME280;9680;52.520;13.332;2024-03-06T09:25:04;102177.16;;;7.27;66.09
19096;BME280;9680;52.520;13.332;2024-03-06T09:27:31;102169.34;;;7.50;66.60
19096;BME280;9680;52.520;13.332;2024-03-06T09:29:58;102171.00;;;7.85;66.49
19096;BME280;9680;52.520;13.332;2024-03-06T09:32:27;102178.72;;;8.06;64.31
19096;BME280;9680;52.520;13.332;2024-03-06T09:34:54;102173.50;;;8.07;64.30
19096;BME280;9680;52.520;13.332;2024-03-06T09:37:20;102166.47;;;8.34;64.79
19096;BME280;9680;52.520;13.332;2024-03-06T09:39:47;102174.16;;;8.56;63.05
19096;BME280;9680;52.520;13.332;2024-03-06T09:42:14;102180.28;;;8.39;62.26
19096;BME280;9680;52.520;13.332;2024-03-06T09:44:41;102176.88;;;8.25;62.80
19096;BME280;9680;52.520;13.332;2024-03-06T09:47:12;102180.34;;;8.21;62.53
19096;BME280;9680;52.520;13.332;2024-03-06T09:49:41;102178.50;;;8.49;63.10
19096;BME280;9680;52.520;13.332;2024-03-06T09:52:08;102180.81;;;8.88;60.37
19096;BME280;9680;52.520;13.332;2024-03-06T09:54:37;102179.09;;;8.87;60.54
19096;BME280;9680;52.520;13.332;2024-03-06T09:57:04;102184.56;;;8.45;59.71
19096;BME280;9680;52.520;13.332;2024-03-06T09:59:31;102191.63;;;8.18;59.95
19096;BME280;9680;52.520;13.332;2024-03-06T10:01:58;102192.53;;;8.08;61.30
19096;BME280;9680;52.520;13.332;2024-03-06T10:04:28;102196.91;;;7.90;60.88
19096;BME280;9680;52.520;13.332;2024-03-06T10:07:00;102203.91;;;7.62;62.13
19096;BME280;9680;52.520;13.332;2024-03-06T10:09:30;102205.66;;;7.60;63.07
19096;BME280;9680;52.520;13.332;2024-03-06T10:11:58;102205.72;;;7.30;63.84
19096;BME280;9680;52.520;13.332;2024-03-06T10:14:25;102201.41;;;7.03;65.01
19096;BME280;9680;52.520;13.332;2024-03-06T10:16:55;102207.41;;;6.83;65.37
19096;BME280;9680;52.520;13.332;2024-03-06T10:19:23;102210.00;;;6.92;66.05
19096;BME280;9680;52.520;13.332;2024-03-06T10:21:53;102213.47;;;6.94;65.01
19096;BME280;9680;52.520;13.332;2024-03-06T10:24:22;102214.34;;;6.85;65.22
19096;BME280;9680;52.520;13.332;2024-03-06T10:26:50;102204.84;;;7.12;66.15
19096;BME280;9680;52.520;13.332;2024-03-06T10:29:20;102207.38;;;7.59;65.84
19096;BME280;9680;52.520;13.332;2024-03-06T10:31:49;102210.75;;;7.92;64.86
19096;BME280;9680;52.520;13.332;2024-03-06T10:34:16;102200.25;;;8.25;61.56
19096;BME280;9680;52.520;13.332;2024-03-06T10:36:43;102207.97;;;8.40;60.79
19096;BME280;9680;52.520;13.332;2024-03-06T10:39:11;102208.06;;;8.20;60.84
19096;BME280;9680;52.520;13.332;2024-03-06T10:41:43;102209.84;;;8.12;61.51
19096;BME280;9680;52.520;13.332;2024-03-06T10:44:11;102206.38;;;8.08;60.87
19096;BME280;9680;52.520;13.332;2024-03-06T10:46:43;102204.56;;;8.23;60.93
19096;BME280;9680;52.520;13.332;2024-03-06T10:49:13;102208.13;;;8.03;61.33
19096;BME280;9680;52.520;13.332;2024-03-06T10:51:40;102206.44;;;7.91;61.20
19096;BME280;9680;52.520;13.332;2024-03-06T10:54:09;102207.31;;;7.81;61.67
19096;BME280;9680;52.520;13.332;2024-03-06T10:56:38;102202.16;;;7.76;62.05
19096;BME280;9680;52.520;13.332;2024-03-06T10:59:10;102194.34;;;7.85;61.78
19096;BME280;9680;52.520;13.332;2024-03-06T11:01:39;102192.53;;;8.14;61.18
19096;BME280;9680;52.520;13.332;2024-03-06T11:04:09;102190.69;;;8.36;59.88
19096;BME280;9680;52.520;13.332;2024-03-06T11:06:37;102198.31;;;8.67;60.73
19096;BME280;9680;52.520;13.332;2024-03-06T11:09:04;102192.06;;;8.96;59.38
19096;BME280;9680;52.520;13.332;2024-03-06T11:11:31;102193.56;;;9.21;57.60
19096;BME280;9680;52.520;13.332;2024-03-06T11:14:00;102196.13;;;9.24;57.92
19096;BME280;9680;52.520;13.332;2024-03-06T11:16:30;102196.06;;;9.31;57.32
19096;BME280;9680;52.520;13.332;2024-03-06T11:19:05;102197.81;;;9.29;55.51
19096;BME280;9680;52.520;13.332;2024-03-06T11:21:33;102195.19;;;9.32;55.97
19096;BME280;9680;52.520;13.332;2024-03-06T11:24:14;102191.34;;;9.69;54.41
19096;BME280;9680;52.520;13.332;2024-03-06T11:26:42;102192.25;;;9.67;55.72
19096;BME280;9680;52.520;13.332;2024-03-06T11:29:09;102195.56;;;9.81;54.59
19096;BME280;9680;52.520;13.332;2024-03-06T11:31:38;102196.69;;;9.55;54.27
19096;BME280;9680;52.520;13.332;2024-03-06T11:34:05;102192.69;;;9.23;55.39
19096;BME280;9680;52.520;13.332;2024-03-06T11:36:34;102197.06;;;9.18;56.02
19096;BME280;9680;52.520;13.332;2024-03-06T11:39:03;102185.66;;;9.31;56.46
19096;BME280;9680;52.520;13.332;2024-03-06T11:41:37;102188.00;;;9.56;55.85
19096;BME280;9680;52.520;13.332;2024-03-06T11:44:14;102185.28;;;9.72;55.36
19096;BME280;9680;52.520;13.332;2024-03-06T11:46:44;102182.47;;;9.86;54.85
19096;BME280;9680;52.520;13.332;2024-03-06T11:49:16;102187.69;;;9.86;53.57
19096;BME280;9680;52.520;13.332;2024-03-06T11:51:46;102181.75;;;9.76;53.43
19096;BME280;9680;52.520;13.332;2024-03-06T11:54:14;102180.25;;;9.53;53.64
19096;BME280;9680;52.520;13.332;2024-03-06T11:56:44;102185.66;;;9.33;54.34
19096;BME280;9680;52.520;13.332;2024-03-06T11:59:15;102186.72;;;9.10;55.23
19096;BME280;9680;52.520;13.332;2024-03-06T12:01:46;102189.34;;;9.07;55.08
19096;BME280;9680;52.520;13.332;2024-03-06T12:04:18;102186.09;;;8.80;55.33
19096;BME280;9680;52.520;13.332;2024-03-06T12:06:46;102192.31;;;8.56;55.40
19096;BME280;9680;52.520;13.332;2024-03-06T12:09:13;102185.34;;;8.59;55.47
19096;BME280;9680;52.520;13.332;2024-03-06T12:11:41;102183.56;;;8.71;54.63
19096;BME280;9680;52.520;13.332;2024-03-06T12:14:13;102188.63;;;8.89;54.76
19096;BME280;9680;52.520;13.332;2024-03-06T12:16:53;102184.19;;;9.06;54.85
19096;BME280;9680;52.520;13.332;2024-03-06T12:19:27;102178.00;;;9.14;54.50
19096;BME280;9680;52.520;13.332;2024-03-06T12:22:00;102179.78;;;9.09;54.68
19096;BME280;9680;52.520;13.332;2024-03-06T12:28:07;102166.63;;;9.29;53.92
19096;BME280;9680;52.520;13.332;2024-03-06T12:30:41;102177.00;;;9.34;53.54
19096;BME280;9680;52.520;13.332;2024-03-06T12:33:10;102183.13;;;9.24;53.99
19096;BME280;9680;52.520;13.332;2024-03-06T12:35:41;102174.50;;;9.18;53.47
19096;BME280;9680;52.520;13.332;2024-03-06T12:38:12;102174.56;;;9.12;53.87
19096;BME280;9680;52.520;13.332;2024-03-06T12:40:42;102173.59;;;9.24;54.35
19096;BME280;9680;52.520;13.332;2024-03-06T12:43:09;102162.97;;;9.47;53.79
19096;BME280;9680;52.520;13.332;2024-03-06T12:45:37;102170.47;;;9.75;54.04
19096;BME280;9680;52.520;13.332;2024-03-06T12:48:05;102164.97;;;10.00;52.75
19096;BME280;9680;52.520;13.332;2024-03-06T12:50:32;102178.19;;;9.83;52.67
19096;BME280;9680;52.520;13.332;2024-03-06T12:53:01;102168.94;;;9.57;52.95
19096;BME280;9680;52.520;13.332;2024-03-06T12:55:30;102168.19;;;9.46;53.07
19096;BME280;9680;52.520;13.332;2024-03-06T12:57:58;102171.78;;;9.32;52.90
19096;BME280;9680;52.520;13.332;2024-03-06T13:00:26;102175.50;;;9.05;53.99
19096;BME280;9680;52.520;13.332;2024-03-06T13:02:54;102170.34;;;9.00;55.07
19096;BME280;9680;52.520;13.332;2024-03-06T13:05:24;102167.53;;;9.25;55.39
19096;BME280;9680;52.520;13.332;2024-03-06T13:07:51;102170.72;;;9.54;55.12